KVKS/VKS METAR and TAF weather

Enter ICAO airport designator
Station Type Date Time Source
KVKS METAR 2021/05/11 16:55 UTC NOAA

KVKS 111655Z AUTO 14004KT 3SM BR FEW004 19/19 A3011 RMK A01


Station Type Date Time Source
KVKS Decoded METAR 2021/05/11 16:55 UTC NOAA

Vicksburg Municipal, MS, United States (KVKS) 32-14N 090-56W
May 11, 2021 - 12:55 PM EDT / 2021.05.11 1655 UTC
Wind: from the SE (140 degrees) at 5 MPH (4 KT):0
Visibility: 3 mile(s):0
Sky conditions: mostly clear
Weather: mist
Temperature: 66 F (19 C)
Dew Point: 66 F (19 C)
Relative Humidity: 100%
Pressure (altimeter): 30.11 in. Hg (1019 hPa)
ob: KVKS 111655Z AUTO 14004KT 3SM BR FEW004 19/19 A3011 RMK A01
cycle: 17

Station Type Date Time Source
KVKS TAF UTC NOAA

Error!

Example: see airport list